Time;durP1;ratioP1;P1;durP2;ratioP2;P2;SDS_P1;SDS_P2;PMS_P1;PMS_P2;Temp;Humidity;BMP_temperature;BMP_pressure;BME280_temperature;BME280_humidity;BME280_pressure;Samples;Min_cycle;Max_cycle;Signal;HPM_P1;HPM_P2
2022/05/17 00:00:01;;;;;;;5.13;4.70;;;;;;;13.94;86.03;101909.81;5033857;28;20475;-48
2022/05/17 00:02:28;;;;;;;5.07;4.87;;;;;;;13.92;86.19;101917.22;5033760;28;20476;-52
2022/05/17 00:04:56;;;;;;;5.40;4.67;;;;;;;13.90;86.46;101908.50;5033895;28;20443;-52
2022/05/17 00:07:23;;;;;;;4.60;4.40;;;;;;;13.88;86.18;101913.25;5033651;28;20452;-49
2022/05/17 00:09:53;;;;;;;5.50;4.90;;;;;;;13.85;86.60;101909.09;5034004;28;20464;-50
2022/05/17 00:12:20;;;;;;;6.03;5.40;;;;;;;13.81;87.49;101903.28;5034205;28;20424;-52
2022/05/17 00:14:48;;;;;;;8.70;4.53;;;;;;;13.80;87.02;101908.81;5034184;28;20783;-49
2022/05/17 00:17:16;;;;;;;6.23;4.60;;;;;;;13.81;86.94;101905.97;5033884;28;20464;-49
2022/05/17 00:19:44;;;;;;;10.47;5.30;;;;;;;13.77;86.98;101910.03;5033224;28;20475;-50
2022/05/17 00:22:11;;;;;;;5.70;4.93;;;;;;;13.77;86.91;101910.03;5034199;28;21016;-45
2022/05/17 00:24:39;;;;;;;4.87;4.47;;;;;;;13.75;87.47;101909.41;5034560;28;20806;-51
2022/05/17 00:27:08;;;;;;;4.70;4.43;;;;;;;13.75;87.09;101906.72;5034139;28;20462;-50
2022/05/17 00:29:36;;;;;;;4.93;4.53;;;;;;;13.75;87.98;101920.13;5033136;28;20985;-47
2022/05/17 00:32:04;;;;;;;5.43;5.13;;;;;;;13.78;87.65;101910.84;5032501;28;20440;-46
2022/05/17 00:34:32;;;;;;;4.80;4.40;;;;;;;13.77;88.09;101919.91;5031652;28;20432;-47
2022/05/17 00:37:00;;;;;;;6.27;4.23;;;;;;;13.79;88.18;101909.84;5031493;28;20452;-48
2022/05/17 00:39:27;;;;;;;7.67;4.90;;;;;;;13.79;88.47;101918.72;5031134;28;20459;-47
2022/05/17 00:41:55;;;;;;;6.57;4.93;;;;;;;13.79;88.94;101926.78;5031165;28;20472;-50
2022/05/17 00:47:14;;;;;;;5.07;4.67;;;;;;;13.76;89.52;101913.75;5031535;28;20456;-49
2022/05/17 00:49:46;;;;;;;5.33;4.40;;;;;;;13.73;89.69;101913.28;5031098;28;20482;-49
2022/05/17 00:52:18;;;;;;;5.87;4.50;;;;;;;13.66;91.13;101909.69;5031312;28;20424;-47
2022/05/17 00:54:47;;;;;;;7.13;4.13;;;;;;;13.66;90.89;101910.53;5032206;28;20436;-48
2022/05/17 00:57:26;;;;;;;8.37;4.10;;;;;;;13.60;91.20;101916.63;5034813;28;20452;-45
2022/05/17 00:59:58;;;;;;;5.50;4.70;;;;;;;13.56;91.98;101907.28;5034639;28;20464;-45
2022/05/17 01:02:27;;;;;;;4.67;4.27;;;;;;;13.55;91.76;101910.19;5034665;28;20976;-47
2022/05/17 01:04:55;;;;;;;5.43;4.47;;;;;;;13.53;91.92;101902.31;5034867;28;20458;-49
2022/05/17 01:07:27;;;;;;;5.83;4.50;;;;;;;13.48;93.12;101901.22;5034730;28;20454;-48
2022/05/17 01:09:55;;;;;;;4.80;4.50;;;;;;;13.45;93.88;101897.06;5034322;28;20467;-46
2022/05/17 01:12:22;;;;;;;5.17;4.70;;;;;;;13.32;95.24;101888.84;5034888;28;20424;-48
2022/05/17 01:14:58;;;;;;;6.43;6.03;;;;;;;13.35;95.30;101885.81;5034923;28;20442;-46
2022/05/17 01:17:28;;;;;;;8.73;8.20;;;;;;;13.22;95.54;101889.16;5034482;28;20459;-47
2022/05/17 01:19:56;;;;;;;10.10;9.23;;;;;;;13.24;95.59;101889.78;5034312;28;20466;-47
2022/05/17 01:22:25;;;;;;;9.57;8.73;;;;;;;13.20;95.87;101893.06;5034188;28;20468;-45
2022/05/17 01:24:53;;;;;;;8.77;8.17;;;;;;;13.14;95.95;101891.09;5034735;28;20429;-49
2022/05/17 01:27:25;;;;;;;10.17;9.23;;;;;;;13.12;96.12;101893.13;5034661;28;20546;-46
2022/05/17 01:29:54;;;;;;;9.13;8.53;;;;;;;13.12;95.90;101895.81;5034201;28;20807;-47
2022/05/17 01:32:23;;;;;;;8.80;8.30;;;;;;;13.07;96.27;101888.31;5034373;28;20424;-52
2022/05/17 01:34:51;;;;;;;8.13;7.63;;;;;;;13.06;96.49;101891.16;5034216;28;20442;-50
2022/05/17 01:37:19;;;;;;;9.80;8.80;;;;;;;13.07;96.21;101887.47;5034396;28;20458;-48
2022/05/17 01:39:48;;;;;;;10.60;8.27;;;;;;;13.06;96.45;101888.47;5033960;28;20464;-48
2022/05/17 01:42:16;;;;;;;7.60;6.97;;;;;;;13.06;96.28;101883.13;5034035;28;20468;-49
2022/05/17 01:44:45;;;;;;;7.00;6.40;;;;;;;13.06;96.34;101877.75;5034122;28;20436;-47
2022/05/17 01:47:14;;;;;;;6.60;6.20;;;;;;;13.06;96.35;101881.28;5034049;28;20448;-47
2022/05/17 01:49:42;;;;;;;8.03;6.90;;;;;;;13.06;96.37;101877.75;5033878;28;20456;-50
2022/05/17 01:52:10;;;;;;;7.60;7.10;;;;;;;13.05;96.74;101879.59;5034051;28;20428;-45
2022/05/17 01:54:37;;;;;;;6.90;6.30;;;;;;;13.01;96.47;101872.13;5034138;28;20428;-49
2022/05/17 01:57:07;;;;;;;7.50;7.03;;;;;;;13.02;96.40;101871.13;5033873;28;20487;-48
2022/05/17 01:59:34;;;;;;;6.77;6.13;;;;;;;12.98;96.38;101867.16;5033549;28;20460;-47
2022/05/17 02:02:04;;;;;;;7.03;6.20;;;;;;;12.98;96.58;101867.16;5033520;28;20484;-46
2022/05/17 02:04:32;;;;;;;6.80;6.20;;;;;;;12.91;96.65;101867.06;5034437;28;20439;-47
2022/05/17 02:06:59;;;;;;;13.93;6.70;;;;;;;12.90;97.13;101859.22;5032990;28;20456;-47
2022/05/17 02:09:27;;;;;;;9.07;6.40;;;;;;;12.87;96.62;101856.91;5033408;28;20454;-46
2022/05/17 02:11:55;;;;;;;7.70;7.10;;;;;;;12.87;96.80;101847.03;5033409;28;20424;-45
2022/05/17 02:14:24;;;;;;;7.40;6.67;;;;;;;12.85;96.55;101850.88;5033691;28;20432;-48
2022/05/17 02:16:51;;;;;;;12.43;6.50;;;;;;;12.80;96.78;101847.94;5033464;28;20460;-46
2022/05/17 02:19:20;;;;;;;7.30;6.67;;;;;;;12.77;96.54;101849.16;5033018;28;20951;-47
2022/05/17 02:21:48;;;;;;;6.73;6.20;;;;;;;12.74;96.32;101839.66;5033310;28;20842;-47
2022/05/17 02:24:16;;;;;;;6.80;5.90;;;;;;;12.71;96.58;101844.53;5033448;28;20428;-47
2022/05/17 02:26:44;;;;;;;6.57;6.10;;;;;;;12.65;96.63;101843.44;5033285;28;20452;-46
2022/05/17 02:29:13;;;;;;;6.90;6.30;;;;;;;12.66;96.56;101836.22;5032776;28;20432;-45
2022/05/17 02:31:42;;;;;;;6.73;6.23;;;;;;;12.64;96.29;101833.72;5033225;28;20519;-49
2022/05/17 02:34:10;;;;;;;6.90;6.20;;;;;;;12.60;96.52;101836.97;5033272;28;20460;-48
2022/05/17 02:36:38;;;;;;;7.30;6.70;;;;;;;12.59;96.07;101838.81;5033175;28;20448;-48
2022/05/17 02:39:06;;;;;;;7.07;6.47;;;;;;;12.58;96.09;101838.97;5033071;28;20436;-48
2022/05/17 02:41:34;;;;;;;6.70;6.20;;;;;;;12.55;96.15;101839.34;5032526;28;20446;-47
2022/05/17 02:44:01;;;;;;;7.80;7.10;;;;;;;12.54;96.30;101833.19;5033149;28;20476;-45
2022/05/17 02:46:30;;;;;;;6.80;6.40;;;;;;;12.52;96.10;101835.19;5033027;28;20456;-47
2022/05/17 02:48:59;;;;;;;7.90;7.27;;;;;;;12.47;96.13;101818.84;5032979;28;20428;-47
2022/05/17 02:51:26;;;;;;;10.87;7.37;;;;;;;12.44;95.36;101819.22;5032246;28;20460;-46
2022/05/17 02:53:54;;;;;;;8.10;7.40;;;;;;;12.42;95.25;101826.59;5032963;28;20420;-49
2022/05/17 02:56:22;;;;;;;8.13;7.43;;;;;;;12.41;95.41;101813.41;5032853;28;20545;-46
2022/05/17 02:58:49;;;;;;;10.43;7.23;;;;;;;12.36;95.30;101830.00;5032833;28;20456;-45
2022/05/17 03:01:17;;;;;;;6.80;6.43;;;;;;;12.35;95.39;101825.66;5032025;28;20464;-48
2022/05/17 03:03:46;;;;;;;7.77;7.17;;;;;;;12.36;95.03;101818.47;5032614;28;20468;-47
2022/05/17 03:06:15;;;;;;;7.00;6.60;;;;;;;12.31;95.93;101827.03;5032504;28;20483;-47
2022/05/17 03:08:42;;;;;;;7.40;6.53;;;;;;;12.31;95.78;101832.38;5032506;28;20428;-46
2022/05/17 03:11:11;;;;;;;9.10;7.43;;;;;;;12.33;95.88;101842.91;5031946;28;20464;-45
2022/05/17 03:13:38;;;;;;;8.47;7.80;;;;;;;12.29;95.96;101842.44;5032653;28;20425;-46
2022/05/17 03:16:06;;;;;;;7.80;7.00;;;;;;;12.31;96.29;101850.25;5032209;28;21011;-44
2022/05/17 03:18:39;;;;;;;7.57;6.80;;;;;;;12.30;96.00;101848.63;5032435;28;20538;-45
2022/05/17 03:21:06;;;;;;;7.53;6.80;;;;;;;12.32;96.01;101844.75;5031681;28;20471;-48
2022/05/17 03:23:35;;;;;;;10.57;7.07;;;;;;;12.32;96.20;101852.78;5032244;28;20468;-45
2022/05/17 03:26:03;;;;;;;8.87;7.40;;;;;;;12.36;96.49;101851.41;5032303;28;20456;-47
2022/05/17 03:28:31;;;;;;;7.30;6.70;;;;;;;12.41;96.40;101859.72;5032354;28;20428;-48
2022/05/17 03:30:58;;;;;;;7.47;7.00;;;;;;;12.40;96.66;101860.72;5031710;28;20460;-48
2022/05/17 03:33:26;;;;;;;8.00;7.20;;;;;;;12.45;96.82;101877.06;5032120;28;20438;-48
2022/05/17 03:35:54;;;;;;;8.00;7.40;;;;;;;12.49;96.67;101872.16;5031935;28;20433;-46
2022/05/17 03:38:21;;;;;;;7.80;7.13;;;;;;;12.55;97.08;101871.44;5032230;28;20443;-49
2022/05/17 03:40:54;;;;;;;8.23;6.77;;;;;;;12.60;97.38;101877.91;5031474;28;20460;-50
2022/05/17 03:43:22;;;;;;;6.60;6.20;;;;;;;12.67;97.31;101881.53;5032224;28;20533;-45
2022/05/17 03:45:49;;;;;;;7.30;6.50;;;;;;;12.73;97.58;101879.97;5033860;28;20970;-47
2022/05/17 03:48:17;;;;;;;8.20;6.50;;;;;;;12.79;97.71;101881.91;5049519;28;20455;-46
2022/05/17 03:50:45;;;;;;;8.70;6.60;;;;;;;12.89;97.44;101882.47;5049936;28;20451;-47
2022/05/17 03:53:13;;;;;;;7.60;6.80;;;;;;;12.96;97.64;101890.63;5050574;28;20436;-49
2022/05/17 03:55:41;;;;;;;8.03;7.23;;;;;;;13.00;97.84;101891.88;5051721;28;20944;-45
2022/05/17 03:58:10;;;;;;;7.47;6.87;;;;;;;13.06;97.57;101899.19;5051700;28;20431;-46
2022/05/17 04:00:37;;;;;;;6.67;6.17;;;;;;;13.12;97.26;101901.16;5050783;28;20459;-47
2022/05/17 04:03:05;;;;;;;7.57;7.00;;;;;;;13.17;97.40;101909.50;5051870;28;20822;-47
2022/05/17 04:05:33;;;;;;;7.23;6.63;;;;;;;13.21;97.73;101902.72;5051815;28;20443;-49
2022/05/17 04:08:00;;;;;;;9.33;7.17;;;;;;;13.25;97.43;101904.88;5051501;28;20527;-50
2022/05/17 04:10:28;;;;;;;6.90;6.27;;;;;;;13.31;97.27;101916.69;5050823;28;20459;-50
2022/05/17 04:12:56;;;;;;;13.37;7.13;;;;;;;13.40;97.37;101922.75;5051682;28;20427;-49
2022/05/17 04:15:25;;;;;;;8.43;6.60;;;;;;;13.45;97.04;101918.50;5051483;28;20924;-48
2022/05/17 04:17:54;;;;;;;7.37;6.87;;;;;;;13.49;96.69;101925.16;5051410;28;20463;-48
2022/05/17 04:20:23;;;;;;;7.33;6.80;;;;;;;13.54;96.79;101929.94;5050760;28;20549;-45
2022/05/17 04:22:52;;;;;;;7.80;7.20;;;;;;;13.52;96.57;101927.47;5051360;28;20467;-48
2022/05/17 04:25:22;;;;;;;7.60;7.00;;;;;;;13.55;96.29;101934.31;5051454;28;20442;-47
2022/05/17 04:27:51;;;;;;;6.27;5.77;;;;;;;13.57;96.37;101938.44;5051294;28;20455;-49
2022/05/17 04:30:19;;;;;;;7.30;6.70;;;;;;;13.58;95.99;101936.59;5052488;28;20462;-48
2022/05/17 04:32:49;;;;;;;6.83;6.23;;;;;;;13.60;96.05;101939.91;5055448;28;20419;-46
2022/05/17 04:35:18;;;;;;;7.20;6.53;;;;;;;13.61;95.61;101947.78;5055700;28;20435;-51
2022/05/17 04:37:50;;;;;;;7.17;6.70;;;;;;;13.69;95.81;101944.16;5055304;28;20454;-48
2022/05/17 04:40:18;;;;;;;6.50;6.03;;;;;;;13.73;95.94;101951.66;5054387;28;20467;-47
2022/05/17 04:42:47;;;;;;;8.00;7.00;;;;;;;13.79;95.72;101952.75;5055290;28;20439;-48
2022/05/17 04:45:17;;;;;;;7.47;6.77;;;;;;;13.83;95.57;101954.84;5055304;28;20435;-49
2022/05/17 04:47:46;;;;;;;6.97;6.40;;;;;;;13.84;94.99;101953.84;5055100;28;20486;-46
2022/05/17 04:50:16;;;;;;;8.37;7.00;;;;;;;13.88;95.14;101958.81;5054427;28;20459;-49
2022/05/17 04:52:44;;;;;;;7.53;6.93;;;;;;;13.93;94.92;101943.00;5054990;28;20427;-48
2022/05/17 04:55:14;;;;;;;7.17;6.60;;;;;;;13.99;94.37;101961.00;5055128;28;20823;-45
2022/05/17 04:57:42;;;;;;;7.03;6.50;;;;;;;13.99;93.79;101943.06;5055069;28;20455;-51
2022/05/17 05:00:13;;;;;;;6.97;6.47;;;;;;;14.02;93.39;101956.09;5054373;28;20463;-49
2022/05/17 05:02:41;;;;;;;7.53;6.90;;;;;;;14.01;92.88;101954.44;5054722;28;20423;-48
2022/05/17 05:05:09;;;;;;;6.90;6.00;;;;;;;14.05;92.99;101952.22;5054574;28;20475;-48
2022/05/17 05:07:37;;;;;;;7.47;6.80;;;;;;;13.97;92.82;101963.91;5054792;28;20447;-45
2022/05/17 05:10:06;;;;;;;7.47;6.60;;;;;;;13.96;93.10;101962.22;5054214;28;20477;-45
2022/05/17 05:12:35;;;;;;;7.67;6.80;;;;;;;13.91;92.87;101963.81;5054638;28;20506;-49
2022/05/17 05:15:03;;;;;;;6.00;5.63;;;;;;;13.84;92.97;101959.22;5055068;28;20427;-50
2022/05/17 05:17:31;;;;;;;7.57;6.50;;;;;;;13.87;93.55;101955.31;5054386;28;20459;-51
2022/05/17 05:19:59;;;;;;;6.60;5.90;;;;;;;13.88;93.20;101959.66;5054268;28;20463;-49
2022/05/17 05:22:29;;;;;;;7.70;6.90;;;;;;;13.85;92.88;101965.41;5054667;28;20427;-52
2022/05/17 05:24:58;;;;;;;7.07;6.57;;;;;;;13.84;92.94;101961.03;5054671;28;20478;-51
2022/05/17 05:27:26;;;;;;;6.60;6.00;;;;;;;13.82;92.46;101965.78;5054788;28;20454;-51
2022/05/17 05:29:54;;;;;;;6.70;6.20;;;;;;;13.73;92.07;101967.75;5054455;28;20478;-48
2022/05/17 05:32:21;;;;;;;7.83;7.10;;;;;;;13.78;92.42;101975.22;5054577;28;20435;-48
2022/05/17 05:34:49;;;;;;;12.93;7.30;;;;;;;13.77;92.45;101966.31;5054705;28;20433;-48
2022/05/17 05:37:17;;;;;;;6.70;6.10;;;;;;;13.80;92.42;101974.00;5054447;28;20459;-51
2022/05/17 05:39:44;;;;;;;7.70;6.80;;;;;;;13.79;92.04;101977.72;5053787;28;20469;-47
2022/05/17 05:42:13;;;;;;;7.23;6.53;;;;;;;13.75;91.72;101978.25;5053061;28;20435;-48
2022/05/17 05:44:41;;;;;;;6.83;6.43;;;;;;;13.71;92.07;101983.16;5054044;28;20477;-52
2022/05/17 05:47:09;;;;;;;6.87;6.33;;;;;;;13.77;92.45;101985.09;5054018;28;20461;-47
2022/05/17 05:49:36;;;;;;;9.53;6.77;;;;;;;13.79;92.12;101985.75;5053668;28;20474;-50
2022/05/17 05:52:04;;;;;;;8.00;6.47;;;;;;;13.73;91.63;101981.16;5054318;28;20525;-51
2022/05/17 05:54:32;;;;;;;7.13;6.50;;;;;;;13.77;91.68;101992.31;5054076;28;21002;-47
2022/05/17 05:57:00;;;;;;;7.10;6.50;;;;;;;13.73;91.41;101983.81;5053783;28;20455;-48
2022/05/17 05:59:30;;;;;;;8.07;5.97;;;;;;;13.75;91.43;101995.19;5053580;28;20447;-50
2022/05/17 06:01:58;;;;;;;6.67;5.87;;;;;;;13.74;91.50;101987.31;5054025;28;20711;-47
2022/05/17 06:04:27;;;;;;;7.93;6.47;;;;;;;13.76;92.00;101990.66;5054001;28;20501;-46
2022/05/17 06:06:56;;;;;;;6.93;6.13;;;;;;;13.81;92.34;101993.59;5053871;28;20855;-51
2022/05/17 06:09:25;;;;;;;6.40;5.90;;;;;;;13.86;92.62;101991.19;5053261;28;20431;-49
2022/05/17 06:11:53;;;;;;;8.27;6.50;;;;;;;13.93;92.82;101993.94;5053348;28;20431;-47
2022/05/17 06:14:21;;;;;;;7.20;6.70;;;;;;;13.91;92.94;101990.63;5053859;28;20427;-50
2022/05/17 06:16:50;;;;;;;7.43;6.70;;;;;;;13.89;92.54;101998.84;5053668;28;20505;-48
2022/05/17 06:19:18;;;;;;;8.20;5.70;;;;;;;13.89;92.63;102000.72;5053159;28;20518;-50
2022/05/17 06:21:46;;;;;;;9.53;6.63;;;;;;;13.95;93.12;101999.97;5053523;28;20443;-49
2022/05/17 06:24:14;;;;;;;8.30;7.57;;;;;;;13.91;93.86;102001.34;5053400;28;20473;-49
2022/05/17 06:26:41;;;;;;;11.00;6.90;;;;;;;13.86;94.05;102007.25;5053686;28;20455;-49
2022/05/17 06:29:09;;;;;;;8.33;7.73;;;;;;;13.77;95.01;102009.22;5053048;28;20427;-49
2022/05/17 06:31:37;;;;;;;9.20;8.50;;;;;;;13.66;95.74;102004.34;5053108;28;20451;-49
2022/05/17 06:34:06;;;;;;;11.83;11.13;;;;;;;13.60;96.11;102013.13;5053506;28;20491;-47
2022/05/17 06:36:34;;;;;;;19.70;18.57;;;;;;;13.58;96.37;102012.50;5053181;28;20994;-50
2022/05/17 06:39:22;;;;;;;21.73;20.50;;;;;;;13.55;97.03;102010.19;5052571;28;20439;-49
2022/05/17 06:41:51;;;;;;;24.63;23.30;;;;;;;13.49;96.92;102016.28;5053188;28;20434;-47
2022/05/17 06:44:18;;;;;;;30.20;28.60;;;;;;;13.45;96.88;102014.97;5053327;28;20481;-51
2022/05/17 06:46:46;;;;;;;31.57;29.87;;;;;;;13.43;97.01;102011.66;5053757;28;20455;-48
2022/05/17 06:49:15;;;;;;;32.57;30.40;;;;;;;13.45;96.26;102014.97;5052199;28;20538;-51
2022/05/17 06:51:43;;;;;;;34.03;32.03;;;;;;;13.42;95.75;102019.88;5052938;28;20437;-45
2022/05/17 06:54:10;;;;;;;33.93;31.67;;;;;;;13.43;95.25;102018.84;5052594;28;20431;-44
2022/05/17 06:56:38;;;;;;;33.77;31.47;;;;;;;13.37;94.71;102016.91;5052770;28;20452;-47
2022/05/17 06:59:06;;;;;;;34.60;32.00;;;;;;;13.45;93.33;102017.66;5052729;28;20838;-47
2022/05/17 07:01:34;;;;;;;33.63;31.73;;;;;;;13.45;93.51;102023.00;5052090;28;20435;-48
2022/05/17 07:04:02;;;;;;;32.80;30.67;;;;;;;13.48;93.57;102017.28;5052294;28;20907;-49
2022/05/17 07:06:31;;;;;;;32.27;30.37;;;;;;;13.51;93.35;102026.78;5052581;28;20455;-44
2022/05/17 07:08:58;;;;;;;32.07;30.10;;;;;;;13.56;93.16;102027.91;5052611;28;20431;-49
2022/05/17 07:14:11;;;;;;;30.30;28.40;;;;;;;13.61;94.95;102025.53;5052384;28;20431;-45
2022/05/17 07:16:39;;;;;;;29.97;28.10;;;;;;;13.70;94.73;102029.78;5052087;28;20463;-47
2022/05/17 07:19:07;;;;;;;28.07;26.37;;;;;;;13.74;95.20;102031.03;5052078;28;20435;-48
2022/05/17 07:21:56;;;;;;;28.63;26.43;;;;;;;13.81;95.16;102041.88;5052260;28;20431;-47
2022/05/17 07:24:23;;;;;;;27.90;25.80;;;;;;;13.93;94.94;102037.69;5052548;28;20442;-46
2022/05/17 07:26:51;;;;;;;29.67;27.40;;;;;;;14.01;95.42;102042.94;5052048;28;20987;-45
2022/05/17 07:29:38;;;;;;;29.17;27.40;;;;;;;14.10;96.10;102043.66;5051744;28;20463;-47
2022/05/17 07:32:07;;;;;;;29.10;27.20;;;;;;;14.23;95.97;102046.50;5052018;28;20438;-44
2022/05/17 07:34:35;;;;;;;27.87;25.97;;;;;;;14.25;97.12;102050.66;5051921;28;20435;-47
2022/05/17 07:37:05;;;;;;;26.97;25.13;;;;;;;14.30;97.25;102045.59;5052107;28;20459;-46
2022/05/17 07:39:32;;;;;;;26.20;24.50;;;;;;;14.28;97.90;102047.59;5051405;28;20485;-44
2022/05/17 07:42:04;;;;;;;27.07;25.30;;;;;;;14.34;97.72;102051.41;5051893;28;20475;-47
2022/05/17 07:44:34;;;;;;;24.80;23.40;;;;;;;14.28;97.80;102054.81;5051716;28;20957;-45
2022/05/17 07:47:02;;;;;;;26.10;24.30;;;;;;;14.30;97.71;102050.94;5051956;28;20447;-46
2022/05/17 07:49:29;;;;;;;25.47;23.70;;;;;;;14.25;98.04;102041.78;5051418;28;20447;-46
2022/05/17 07:51:57;;;;;;;25.63;24.13;;;;;;;14.16;97.85;102042.91;5051579;28;20539;-46
2022/05/17 07:54:26;;;;;;;23.93;22.63;;;;;;;14.17;97.97;102047.25;5051707;28;20526;-44
2022/05/17 07:56:54;;;;;;;24.70;23.10;;;;;;;14.11;97.84;102039.97;5051842;28;20816;-47
2022/05/17 07:59:21;;;;;;;23.47;22.17;;;;;;;14.08;98.09;102053.75;5051479;28;20427;-49
2022/05/17 08:01:49;;;;;;;24.00;22.43;;;;;;;14.17;97.91;102061.50;5051573;28;20427;-48
2022/05/17 08:04:16;;;;;;;22.73;21.50;;;;;;;14.20;97.68;102053.09;5050966;28;20813;-44
2022/05/17 08:06:44;;;;;;;22.23;20.93;;;;;;;14.19;97.85;102059.47;5051435;28;20471;-45
2022/05/17 08:09:12;;;;;;;24.00;22.40;;;;;;;14.21;97.85;102062.81;5051383;28;20432;-46
2022/05/17 08:11:41;;;;;;;23.13;21.70;;;;;;;14.24;97.82;102067.81;5051436;28;20443;-47
2022/05/17 08:14:09;;;;;;;21.27;20.07;;;;;;;14.18;97.94;102063.19;5051668;28;20813;-45
2022/05/17 08:16:42;;;;;;;20.77;19.63;;;;;;;14.15;97.50;102060.88;5051372;28;20541;-46
2022/05/17 08:19:10;;;;;;;20.60;19.40;;;;;;;14.12;97.94;102065.78;5051029;28;20428;-46
2022/05/17 08:21:38;;;;;;;20.90;19.60;;;;;;;14.18;97.52;102063.19;5051202;28;20435;-44
2022/05/17 08:24:07;;;;;;;21.07;19.67;;;;;;;14.17;97.60;102058.84;5051545;28;20427;-47
2022/05/17 08:29:21;;;;;;;20.80;19.47;;;;;;;14.22;97.31;102061.78;5050991;28;20793;-44
2022/05/17 08:34:31;;;;;;;19.60;18.20;;;;;;;14.38;97.25;102074.19;5051277;28;20435;-49
2022/05/17 08:36:58;;;;;;;19.60;18.50;;;;;;;14.46;97.11;102079.41;5051412;28;20447;-48
2022/05/17 08:39:27;;;;;;;19.10;18.00;;;;;;;14.60;97.20;102075.88;5050801;28;20945;-49
2022/05/17 08:41:59;;;;;;;19.47;18.27;;;;;;;14.67;97.13;102079.44;5051119;28;20925;-48
2022/05/17 08:44:42;;;;;;;18.30;17.30;;;;;;;14.66;96.26;102083.16;5051516;28;20435;-45
2022/05/17 08:47:14;;;;;;;18.47;17.27;;;;;;;14.64;95.84;102082.50;5051279;28;20481;-47
2022/05/17 08:50:05;;;;;;;17.40;16.40;;;;;;;14.69;95.80;102093.53;5051064;28;20463;-46
2022/05/17 08:52:34;;;;;;;17.03;15.80;;;;;;;14.82;96.14;102085.59;5051048;28;20752;-47
2022/05/17 08:55:04;;;;;;;16.23;14.90;;;;;;;14.84;95.21;102093.47;5051278;28;20435;-47
2022/05/17 08:57:39;;;;;;;15.17;14.10;;;;;;;14.88;94.97;102086.66;5051332;28;20458;-47
2022/05/17 09:00:12;;;;;;;15.77;14.63;;;;;;;14.94;94.97;102085.91;5050802;28;20455;-45
2022/05/17 09:02:43;;;;;;;15.10;14.30;;;;;;;14.97;94.65;102090.88;5051108;28;20424;-48
2022/05/17 09:05:25;;;;;;;14.37;13.67;;;;;;;14.99;94.08;102091.56;5051261;28;20470;-46
2022/05/17 09:08:00;;;;;;;14.70;13.80;;;;;;;14.99;93.50;102090.72;5051249;28;20805;-46
2022/05/17 09:10:35;;;;;;;15.50;14.30;;;;;;;15.00;93.35;102103.09;5050327;28;20983;-46
2022/05/17 09:13:09;;;;;;;14.50;13.70;;;;;;;15.13;94.14;102105.91;5050985;28;20426;-44
2022/05/17 09:15:38;;;;;;;14.27;13.60;;;;;;;15.14;93.33;102107.59;5051854;28;20439;-50
2022/05/17 09:18:09;;;;;;;15.13;14.33;;;;;;;15.15;93.09;102107.38;5054787;28;20453;-46
2022/05/17 09:20:39;;;;;;;14.53;13.50;;;;;;;15.26;93.90;102098.78;5053929;28;20526;-46
2022/05/17 09:23:08;;;;;;;14.47;13.57;;;;;;;15.27;92.57;102110.38;5054560;28;20442;-45
2022/05/17 09:25:48;;;;;;;15.17;14.40;;;;;;;15.35;92.83;102105.69;5054219;28;20818;-46
2022/05/17 09:28:20;;;;;;;15.63;14.77;;;;;;;15.29;90.96;102119.09;5054556;28;20431;-50
2022/05/17 09:31:08;;;;;;;15.33;14.40;;;;;;;15.26;91.21;102109.53;5053794;28;20485;-46
2022/05/17 09:33:39;;;;;;;15.70;14.63;;;;;;;15.32;91.52;102114.13;5054259;28;20839;-47
2022/05/17 09:36:08;;;;;;;14.83;14.03;;;;;;;15.34;91.43;102114.78;5054431;28;20451;-44
2022/05/17 09:38:39;;;;;;;14.50;13.70;;;;;;;15.47;92.18;102122.19;5054332;28;20432;-46
2022/05/17 09:41:09;;;;;;;15.67;14.60;;;;;;;15.52;91.98;102119.72;5053659;28;20459;-47
2022/05/17 09:43:45;;;;;;;16.03;15.07;;;;;;;15.57;91.36;102117.25;5054230;28;20849;-43
2022/05/17 09:46:28;;;;;;;14.90;13.53;;;;;;;15.62;91.21;102122.06;5053925;28;20490;-48
2022/05/17 09:54:39;;;;;;;13.13;12.43;;;;;;;15.71;86.51;102132.47;5053755;28;20439;-47
2022/05/17 09:57:18;;;;;;;13.47;12.67;;;;;;;15.82;87.71;102136.47;5053713;28;20550;-43
2022/05/17 09:59:47;;;;;;;13.10;12.30;;;;;;;15.98;88.64;102131.59;5053566;28;20469;-43
2022/05/17 10:02:32;;;;;;;12.00;11.13;;;;;;;16.08;88.09;102133.09;5053884;28;20807;-47
2022/05/17 10:05:01;;;;;;;12.40;11.50;;;;;;;16.16;87.50;102141.03;5053832;28;20435;-48
2022/05/17 10:07:31;;;;;;;12.83;12.00;;;;;;;16.29;87.07;102138.38;5053727;28;20489;-47
2022/05/17 10:10:04;;;;;;;13.20;12.17;;;;;;;16.34;85.64;102144.00;5053294;28;20470;-47
2022/05/17 10:12:36;;;;;;;11.77;11.27;;;;;;;16.41;85.67;102152.94;5053555;28;20431;-44
2022/05/17 10:15:09;;;;;;;11.23;10.63;;;;;;;16.35;82.27;102145.66;5053635;28;20820;-43
2022/05/17 10:17:44;;;;;;;11.20;10.50;;;;;;;16.32;81.28;102159.53;5053213;28;20459;-50
2022/05/17 10:20:16;;;;;;;11.60;10.80;;;;;;;16.36;81.79;102158.09;5053108;28;20466;-49
2022/05/17 10:22:56;;;;;;;10.80;10.10;;;;;;;16.45;82.99;102165.81;5053864;28;20427;-44
2022/05/17 10:25:29;;;;;;;10.90;10.30;;;;;;;16.43;81.52;102154.38;5053396;28;20435;-47
2022/05/17 10:28:02;;;;;;;10.70;10.10;;;;;;;16.47;81.39;102155.66;5052551;28;20482;-47
2022/05/17 10:30:42;;;;;;;10.73;10.03;;;;;;;16.51;80.47;102162.31;5052812;28;20837;-47
2022/05/17 10:33:16;;;;;;;11.67;10.90;;;;;;;16.49;78.72;102161.66;5053404;28;20419;-45
2022/05/17 10:35:47;;;;;;;10.73;10.13;;;;;;;16.73;80.98;102167.56;5053120;28;20439;-47
2022/05/17 10:38:19;;;;;;;10.10;9.47;;;;;;;16.92;80.75;102166.81;5053137;28;20427;-43
2022/05/17 10:40:51;;;;;;;10.80;10.20;;;;;;;16.77;78.03;102172.38;5052347;28;20482;-44
2022/05/17 10:43:24;;;;;;;11.17;10.50;;;;;;;16.71;76.07;102169.66;5053278;28;20441;-44
2022/05/17 10:46:00;;;;;;;10.53;10.07;;;;;;;16.73;76.00;102179.19;5053185;28;20542;-47
2022/05/17 10:48:41;;;;;;;10.60;10.00;;;;;;;16.82;76.22;102180.66;5052998;28;20427;-43
2022/05/17 10:51:16;;;;;;;11.80;10.83;;;;;;;16.98;77.28;102176.78;5052181;28;20533;-46
2022/05/17 10:53:58;;;;;;;10.90;10.20;;;;;;;17.07;75.33;102171.00;5052954;28;20427;-46
2022/05/17 10:56:35;;;;;;;10.60;9.80;;;;;;;17.19;76.49;102179.31;5052875;28;20478;-47
2022/05/17 10:59:14;;;;;;;11.07;10.07;;;;;;;17.28;76.09;102183.47;5052343;28;20427;-44
2022/05/17 11:01:49;;;;;;;9.53;9.10;;;;;;;17.27;74.72;102176.41;5052870;28;20458;-48
2022/05/17 11:04:59;;;;;;;9.70;9.20;;;;;;;17.17;74.42;102177.88;5052531;28;20445;-48
2022/05/17 11:07:37;;;;;;;10.57;9.87;;;;;;;17.30;76.34;102178.69;5052348;28;20482;-49
2022/05/17 11:10:15;;;;;;;10.30;9.73;;;;;;;17.28;74.23;102182.63;5052225;28;20463;-45
2022/05/17 11:12:49;;;;;;;10.50;9.90;;;;;;;17.42;74.51;102181.59;5052663;28;20454;-48
2022/05/17 11:15:21;;;;;;;10.33;9.53;;;;;;;17.56;72.84;102183.31;5052516;28;20480;-50
2022/05/17 11:17:54;;;;;;;10.13;9.30;;;;;;;17.67;72.97;102180.81;5052204;28;20497;-51
2022/05/17 11:20:28;;;;;;;10.17;9.60;;;;;;;17.75;71.47;102187.88;5051645;28;20463;-49
2022/05/17 11:23:13;;;;;;;10.20;9.67;;;;;;;17.65;69.15;102185.56;5052392;28;20427;-48
2022/05/17 11:26:00;;;;;;;9.13;8.43;;;;;;;17.55;68.20;102184.34;5052434;28;20511;-53
2022/05/17 11:29:12;;;;;;;8.60;8.10;;;;;;;17.57;69.02;102183.09;5052053;28;20979;-50
2022/05/17 11:31:53;;;;;;;9.87;9.27;;;;;;;17.67;70.09;102180.81;5051919;28;20445;-46
2022/05/17 11:34:27;;;;;;;8.97;8.47;;;;;;;17.68;69.19;102179.75;5052252;28;20423;-48
2022/05/17 11:36:58;;;;;;;9.50;8.80;;;;;;;17.75;68.33;102184.31;5051936;28;20447;-53
2022/05/17 11:39:48;;;;;;;10.30;9.40;;;;;;;17.97;69.31;102183.06;5050864;28;20427;-52
2022/05/17 11:42:31;;;;;;;10.33;8.93;;;;;;;18.13;69.19;102177.19;5051891;28;20423;-51
2022/05/17 11:45:18;;;;;;;11.00;9.90;;;;;;;17.76;65.92;102181.44;5052078;28;20438;-45
2022/05/17 11:47:50;;;;;;;10.23;9.40;;;;;;;17.97;67.83;102178.50;5052173;28;20486;-53
2022/05/17 11:50:43;;;;;;;10.20;9.47;;;;;;;18.08;67.49;102185.94;5051122;28;20469;-51